sensor_id;sensor_type;location;lat;lon;timestamp;P1;durP1;ratioP1;P2;durP2;ratioP2
4309;SDS011;2168;53.576;9.980;2022-09-09T00:00:14;261.77;;;85.07;;
4309;SDS011;2168;53.576;9.980;2022-09-09T00:02:41;435.70;;;157.23;;
4309;SDS011;2168;53.576;9.980;2022-09-09T00:05:14;206.00;;;63.67;;
4309;SDS011;2168;53.576;9.980;2022-09-09T00:07:45;348.50;;;132.40;;
4309;SDS011;2168;53.576;9.980;2022-09-09T00:10:20;122.77;;;51.33;;
4309;SDS011;2168;53.576;9.980;2022-09-09T00:12:53;295.77;;;101.20;;
4309;SDS011;2168;53.576;9.980;2022-09-09T00:15:24;107.43;;;43.33;;
4309;SDS011;2168;53.576;9.980;2022-09-09T00:17:52;67.03;;;34.20;;
4309;SDS011;2168;53.576;9.980;2022-09-09T00:23:12;54.43;;;31.20;;
4309;SDS011;2168;53.576;9.980;2022-09-09T00:25:36;49.13;;;28.53;;
4309;SDS011;2168;53.576;9.980;2022-09-09T00:28:04;47.33;;;27.87;;
4309;SDS011;2168;53.576;9.980;2022-09-09T00:30:33;56.50;;;29.40;;
4309;SDS011;2168;53.576;9.980;2022-09-09T00:33:00;52.73;;;30.60;;
4309;SDS011;2168;53.576;9.980;2022-09-09T00:35:31;48.90;;;28.80;;
4309;SDS011;2168;53.576;9.980;2022-09-09T00:38:00;62.67;;;32.60;;
4309;SDS011;2168;53.576;9.980;2022-09-09T00:40:33;77.00;;;36.70;;
4309;SDS011;2168;53.576;9.980;2022-09-09T00:43:03;72.97;;;34.80;;
4309;SDS011;2168;53.576;9.980;2022-09-09T00:48:01;87.10;;;39.00;;
4309;SDS011;2168;53.576;9.980;2022-09-09T00:58:01;67.07;;;33.87;;
4309;SDS011;2168;53.576;9.980;2022-09-09T01:00:38;71.93;;;35.60;;
4309;SDS011;2168;53.576;9.980;2022-09-09T01:03:10;72.33;;;33.90;;
4309;SDS011;2168;53.576;9.980;2022-09-09T01:08:24;61.57;;;32.80;;
4309;SDS011;2168;53.576;9.980;2022-09-09T01:10:53;58.20;;;31.53;;
4309;SDS011;2168;53.576;9.980;2022-09-09T01:13:23;50.53;;;29.63;;
4309;SDS011;2168;53.576;9.980;2022-09-09T01:15:49;56.97;;;32.00;;
4309;SDS011;2168;53.576;9.980;2022-09-09T01:18:18;53.53;;;28.60;;
4309;SDS011;2168;53.576;9.980;2022-09-09T01:26:29;55.20;;;27.87;;
4309;SDS011;2168;53.576;9.980;2022-09-09T01:28:35;50.47;;;29.30;;
4309;SDS011;2168;53.576;9.980;2022-09-09T01:31:02;41.97;;;25.93;;
4309;SDS011;2168;53.576;9.980;2022-09-09T01:33:28;43.00;;;24.47;;
4309;SDS011;2168;53.576;9.980;2022-09-09T01:36:00;44.37;;;26.57;;
4309;SDS011;2168;53.576;9.980;2022-09-09T01:38:28;42.73;;;26.43;;
4309;SDS011;2168;53.576;9.980;2022-09-09T01:40:54;50.30;;;26.30;;
4309;SDS011;2168;53.576;9.980;2022-09-09T01:43:20;50.50;;;27.93;;
4309;SDS011;2168;53.576;9.980;2022-09-09T01:45:45;63.10;;;28.70;;
4309;SDS011;2168;53.576;9.980;2022-09-09T01:48:11;47.77;;;26.03;;
4309;SDS011;2168;53.576;9.980;2022-09-09T01:50:36;48.20;;;25.80;;
4309;SDS011;2168;53.576;9.980;2022-09-09T01:53:02;51.60;;;27.47;;
4309;SDS011;2168;53.576;9.980;2022-09-09T01:55:31;57.57;;;28.47;;
4309;SDS011;2168;53.576;9.980;2022-09-09T01:58:43;46.33;;;26.47;;
4309;SDS011;2168;53.576;9.980;2022-09-09T02:00:44;43.70;;;24.90;;
4309;SDS011;2168;53.576;9.980;2022-09-09T02:05:49;47.10;;;25.67;;
4309;SDS011;2168;53.576;9.980;2022-09-09T02:08:42;43.50;;;24.73;;
4309;SDS011;2168;53.576;9.980;2022-09-09T02:11:05;40.30;;;23.93;;
4309;SDS011;2168;53.576;9.980;2022-09-09T02:13:32;54.53;;;26.13;;
4309;SDS011;2168;53.576;9.980;2022-09-09T02:16:03;48.13;;;26.60;;
4309;SDS011;2168;53.576;9.980;2022-09-09T02:18:43;43.00;;;24.43;;
4309;SDS011;2168;53.576;9.980;2022-09-09T02:21:11;42.87;;;26.00;;
4309;SDS011;2168;53.576;9.980;2022-09-09T02:23:37;42.87;;;24.63;;
4309;SDS011;2168;53.576;9.980;2022-09-09T02:26:04;40.57;;;24.77;;
4309;SDS011;2168;53.576;9.980;2022-09-09T02:28:31;48.17;;;24.17;;
4309;SDS011;2168;53.576;9.980;2022-09-09T02:30:58;43.53;;;24.27;;
4309;SDS011;2168;53.576;9.980;2022-09-09T02:33:28;49.63;;;25.23;;
4309;SDS011;2168;53.576;9.980;2022-09-09T02:35:55;48.77;;;25.33;;
4309;SDS011;2168;53.576;9.980;2022-09-09T02:38:26;42.23;;;24.40;;
4309;SDS011;2168;53.576;9.980;2022-09-09T02:40:53;92.43;;;38.90;;
4309;SDS011;2168;53.576;9.980;2022-09-09T02:43:18;41.83;;;23.40;;
4309;SDS011;2168;53.576;9.980;2022-09-09T02:45:47;44.27;;;24.00;;
4309;SDS011;2168;53.576;9.980;2022-09-09T02:48:18;48.30;;;25.60;;
4309;SDS011;2168;53.576;9.980;2022-09-09T02:51:03;44.70;;;25.27;;
4309;SDS011;2168;53.576;9.980;2022-09-09T02:53:39;39.20;;;22.07;;
4309;SDS011;2168;53.576;9.980;2022-09-09T02:56:12;38.40;;;23.17;;
4309;SDS011;2168;53.576;9.980;2022-09-09T02:58:38;40.10;;;23.20;;
4309;SDS011;2168;53.576;9.980;2022-09-09T03:01:04;37.10;;;22.90;;
4309;SDS011;2168;53.576;9.980;2022-09-09T03:03:30;36.97;;;22.23;;
4309;SDS011;2168;53.576;9.980;2022-09-09T03:05:55;37.60;;;23.17;;
4309;SDS011;2168;53.576;9.980;2022-09-09T03:08:21;43.07;;;23.10;;
4309;SDS011;2168;53.576;9.980;2022-09-09T03:10:47;41.23;;;22.90;;
4309;SDS011;2168;53.576;9.980;2022-09-09T03:13:12;34.40;;;21.20;;
4309;SDS011;2168;53.576;9.980;2022-09-09T03:15:40;40.73;;;23.67;;
4309;SDS011;2168;53.576;9.980;2022-09-09T03:18:05;40.37;;;21.97;;
4309;SDS011;2168;53.576;9.980;2022-09-09T03:20:31;36.73;;;21.77;;
4309;SDS011;2168;53.576;9.980;2022-09-09T03:22:56;36.00;;;21.37;;
4309;SDS011;2168;53.576;9.980;2022-09-09T03:25:22;45.70;;;23.07;;
4309;SDS011;2168;53.576;9.980;2022-09-09T03:27:51;34.00;;;21.87;;
4309;SDS011;2168;53.576;9.980;2022-09-09T03:30:19;39.60;;;23.13;;
4309;SDS011;2168;53.576;9.980;2022-09-09T03:32:44;30.57;;;20.30;;
4309;SDS011;2168;53.576;9.980;2022-09-09T03:35:10;30.40;;;20.70;;
4309;SDS011;2168;53.576;9.980;2022-09-09T03:37:35;33.87;;;20.80;;
4309;SDS011;2168;53.576;9.980;2022-09-09T03:40:00;34.63;;;21.13;;
4309;SDS011;2168;53.576;9.980;2022-09-09T03:42:25;33.50;;;19.97;;
4309;SDS011;2168;53.576;9.980;2022-09-09T03:44:51;39.27;;;21.90;;
4309;SDS011;2168;53.576;9.980;2022-09-09T03:47:19;35.13;;;21.20;;
4309;SDS011;2168;53.576;9.980;2022-09-09T03:49:46;34.60;;;20.70;;
4309;SDS011;2168;53.576;9.980;2022-09-09T03:52:12;38.90;;;22.17;;
4309;SDS011;2168;53.576;9.980;2022-09-09T03:54:37;31.47;;;19.87;;
4309;SDS011;2168;53.576;9.980;2022-09-09T03:57:03;31.33;;;19.80;;
4309;SDS011;2168;53.576;9.980;2022-09-09T03:59:28;40.00;;;20.57;;
4309;SDS011;2168;53.576;9.980;2022-09-09T04:01:53;29.90;;;20.23;;
4309;SDS011;2168;53.576;9.980;2022-09-09T04:04:19;38.03;;;21.87;;
4309;SDS011;2168;53.576;9.980;2022-09-09T04:06:45;29.90;;;20.07;;
4309;SDS011;2168;53.576;9.980;2022-09-09T04:09:10;32.27;;;20.97;;
4309;SDS011;2168;53.576;9.980;2022-09-09T04:11:36;35.13;;;22.00;;
4309;SDS011;2168;53.576;9.980;2022-09-09T04:14:01;33.63;;;20.90;;
4309;SDS011;2168;53.576;9.980;2022-09-09T04:16:27;38.30;;;20.90;;
4309;SDS011;2168;53.576;9.980;2022-09-09T04:18:52;36.83;;;21.93;;
4309;SDS011;2168;53.576;9.980;2022-09-09T04:21:18;35.63;;;20.97;;
4309;SDS011;2168;53.576;9.980;2022-09-09T04:23:43;32.20;;;19.67;;
4309;SDS011;2168;53.576;9.980;2022-09-09T04:26:09;36.00;;;20.87;;
4309;SDS011;2168;53.576;9.980;2022-09-09T04:28:35;36.07;;;20.90;;
4309;SDS011;2168;53.576;9.980;2022-09-09T04:31:07;33.93;;;19.70;;
4309;SDS011;2168;53.576;9.980;2022-09-09T04:33:34;28.67;;;18.53;;
4309;SDS011;2168;53.576;9.980;2022-09-09T04:35:59;30.53;;;18.63;;
4309;SDS011;2168;53.576;9.980;2022-09-09T04:38:24;29.07;;;19.60;;
4309;SDS011;2168;53.576;9.980;2022-09-09T04:40:51;34.63;;;21.33;;
4309;SDS011;2168;53.576;9.980;2022-09-09T04:43:17;27.13;;;17.67;;
4309;SDS011;2168;53.576;9.980;2022-09-09T04:45:44;27.23;;;17.70;;
4309;SDS011;2168;53.576;9.980;2022-09-09T04:48:11;32.50;;;18.67;;
4309;SDS011;2168;53.576;9.980;2022-09-09T04:50:36;27.17;;;18.50;;
4309;SDS011;2168;53.576;9.980;2022-09-09T04:53:02;27.93;;;19.60;;
4309;SDS011;2168;53.576;9.980;2022-09-09T04:55:27;27.10;;;17.13;;
4309;SDS011;2168;53.576;9.980;2022-09-09T04:57:53;23.03;;;16.47;;
4309;SDS011;2168;53.576;9.980;2022-09-09T05:00:19;25.80;;;17.43;;
4309;SDS011;2168;53.576;9.980;2022-09-09T05:02:44;23.27;;;16.07;;
4309;SDS011;2168;53.576;9.980;2022-09-09T05:05:09;20.30;;;15.20;;
4309;SDS011;2168;53.576;9.980;2022-09-09T05:07:36;24.10;;;15.97;;
4309;SDS011;2168;53.576;9.980;2022-09-09T05:10:02;19.47;;;14.53;;
4309;SDS011;2168;53.576;9.980;2022-09-09T05:12:30;20.40;;;15.20;;
4309;SDS011;2168;53.576;9.980;2022-09-09T05:14:56;28.33;;;14.30;;
4309;SDS011;2168;53.576;9.980;2022-09-09T05:17:21;18.33;;;14.47;;
4309;SDS011;2168;53.576;9.980;2022-09-09T05:19:46;23.30;;;14.20;;
4309;SDS011;2168;53.576;9.980;2022-09-09T05:22:12;17.27;;;13.60;;
4309;SDS011;2168;53.576;9.980;2022-09-09T05:24:37;19.63;;;14.70;;
4309;SDS011;2168;53.576;9.980;2022-09-09T05:27:03;24.83;;;14.73;;
4309;SDS011;2168;53.576;9.980;2022-09-09T05:29:30;19.20;;;14.40;;
4309;SDS011;2168;53.576;9.980;2022-09-09T05:31:58;21.10;;;15.23;;
4309;SDS011;2168;53.576;9.980;2022-09-09T05:34:23;19.63;;;13.40;;
4309;SDS011;2168;53.576;9.980;2022-09-09T05:36:48;21.37;;;14.20;;
4309;SDS011;2168;53.576;9.980;2022-09-09T05:39:14;22.50;;;13.37;;
4309;SDS011;2168;53.576;9.980;2022-09-09T05:41:39;23.30;;;13.80;;
4309;SDS011;2168;53.576;9.980;2022-09-09T05:44:04;19.23;;;12.97;;
4309;SDS011;2168;53.576;9.980;2022-09-09T05:46:31;20.67;;;14.07;;
4309;SDS011;2168;53.576;9.980;2022-09-09T05:48:56;16.90;;;12.90;;
4309;SDS011;2168;53.576;9.980;2022-09-09T05:51:23;22.43;;;13.43;;
4309;SDS011;2168;53.576;9.980;2022-09-09T05:53:49;19.17;;;11.80;;
4309;SDS011;2168;53.576;9.980;2022-09-09T05:56:16;17.40;;;12.60;;
4309;SDS011;2168;53.576;9.980;2022-09-09T05:58:42;16.13;;;11.67;;
4309;SDS011;2168;53.576;9.980;2022-09-09T06:01:13;17.10;;;11.77;;
4309;SDS011;2168;53.576;9.980;2022-09-09T06:03:39;20.03;;;10.23;;
4309;SDS011;2168;53.576;9.980;2022-09-09T06:06:05;14.07;;;11.40;;
4309;SDS011;2168;53.576;9.980;2022-09-09T06:08:31;13.23;;;10.73;;
4309;SDS011;2168;53.576;9.980;2022-09-09T06:11:03;14.93;;;10.67;;
4309;SDS011;2168;53.576;9.980;2022-09-09T06:13:29;13.67;;;9.80;;
4309;SDS011;2168;53.576;9.980;2022-09-09T06:15:55;15.73;;;9.23;;
4309;SDS011;2168;53.576;9.980;2022-09-09T06:18:20;10.93;;;9.33;;
4309;SDS011;2168;53.576;9.980;2022-09-09T06:23:19;11.40;;;9.20;;
4309;SDS011;2168;53.576;9.980;2022-09-09T06:25:45;11.60;;;9.87;;
4309;SDS011;2168;53.576;9.980;2022-09-09T06:28:10;10.97;;;9.37;;
4309;SDS011;2168;53.576;9.980;2022-09-09T06:30:36;13.80;;;9.07;;
4309;SDS011;2168;53.576;9.980;2022-09-09T06:33:01;14.40;;;10.20;;
4309;SDS011;2168;53.576;9.980;2022-09-09T06:35:27;12.83;;;10.03;;
4309;SDS011;2168;53.576;9.980;2022-09-09T06:37:53;11.50;;;8.73;;
4309;SDS011;2168;53.576;9.980;2022-09-09T06:40:18;14.77;;;8.10;;
4309;SDS011;2168;53.576;9.980;2022-09-09T06:42:43;16.37;;;9.33;;
4309;SDS011;2168;53.576;9.980;2022-09-09T06:45:08;22.57;;;9.37;;
4309;SDS011;2168;53.576;9.980;2022-09-09T06:47:34;17.27;;;8.60;;
4309;SDS011;2168;53.576;9.980;2022-09-09T06:49:59;17.03;;;9.40;;
4309;SDS011;2168;53.576;9.980;2022-09-09T06:52:24;13.10;;;8.13;;
4309;SDS011;2168;53.576;9.980;2022-09-09T06:54:50;15.73;;;8.70;;
4309;SDS011;2168;53.576;9.980;2022-09-09T06:57:15;21.77;;;9.53;;
4309;SDS011;2168;53.576;9.980;2022-09-09T06:59:41;18.50;;;9.70;;
4309;SDS011;2168;53.576;9.980;2022-09-09T07:02:07;22.23;;;8.70;;
4309;SDS011;2168;53.576;9.980;2022-09-09T07:04:33;15.50;;;8.50;;
4309;SDS011;2168;53.576;9.980;2022-09-09T07:06:58;16.33;;;8.47;;
4309;SDS011;2168;53.576;9.980;2022-09-09T07:09:23;15.60;;;9.07;;
4309;SDS011;2168;53.576;9.980;2022-09-09T07:11:49;17.60;;;7.40;;
4309;SDS011;2168;53.576;9.980;2022-09-09T07:14:16;9.20;;;7.23;;
4309;SDS011;2168;53.576;9.980;2022-09-09T07:16:42;16.13;;;6.97;;
4309;SDS011;2168;53.576;9.980;2022-09-09T07:19:08;13.60;;;5.90;;
4309;SDS011;2168;53.576;9.980;2022-09-09T07:21:33;14.03;;;6.20;;
4309;SDS011;2168;53.576;9.980;2022-09-09T07:23:59;7.50;;;5.33;;
4309;SDS011;2168;53.576;9.980;2022-09-09T07:26:28;6.00;;;5.40;;
4309;SDS011;2168;53.576;9.980;2022-09-09T07:28:54;6.67;;;5.40;;
4309;SDS011;2168;53.576;9.980;2022-09-09T07:31:31;8.70;;;5.30;;
4309;SDS011;2168;53.576;9.980;2022-09-09T07:33:56;7.43;;;5.30;;
4309;SDS011;2168;53.576;9.980;2022-09-09T07:36:23;6.27;;;4.70;;
4309;SDS011;2168;53.576;9.980;2022-09-09T07:38:50;6.23;;;4.60;;
4309;SDS011;2168;53.576;9.980;2022-09-09T07:43:44;6.30;;;5.07;;
4309;SDS011;2168;53.576;9.980;2022-09-09T07:46:11;10.00;;;5.27;;
4309;SDS011;2168;53.576;9.980;2022-09-09T07:48:37;10.90;;;5.13;;
4309;SDS011;2168;53.576;9.980;2022-09-09T07:51:10;12.73;;;4.80;;
4309;SDS011;2168;53.576;9.980;2022-09-09T07:53:36;13.43;;;5.20;;
4309;SDS011;2168;53.576;9.980;2022-09-09T07:56:07;9.10;;;4.33;;
4309;SDS011;2168;53.576;9.980;2022-09-09T07:58:32;10.23;;;4.80;;
4309;SDS011;2168;53.576;9.980;2022-09-09T08:00:58;12.73;;;4.73;;
4309;SDS011;2168;53.576;9.980;2022-09-09T08:03:23;10.67;;;5.20;;
4309;SDS011;2168;53.576;9.980;2022-09-09T08:05:48;11.73;;;5.10;;
4309;SDS011;2168;53.576;9.980;2022-09-09T08:08:13;7.90;;;5.07;;
4309;SDS011;2168;53.576;9.980;2022-09-09T08:10:39;9.73;;;4.07;;
4309;SDS011;2168;53.576;9.980;2022-09-09T08:13:04;8.40;;;5.00;;
4309;SDS011;2168;53.576;9.980;2022-09-09T08:15:30;13.23;;;5.53;;
4309;SDS011;2168;53.576;9.980;2022-09-09T08:17:57;9.43;;;5.27;;
4309;SDS011;2168;53.576;9.980;2022-09-09T08:20:22;7.80;;;5.37;;
4309;SDS011;2168;53.576;9.980;2022-09-09T08:22:48;10.13;;;5.80;;
4309;SDS011;2168;53.576;9.980;2022-09-09T08:25:15;11.10;;;5.90;;
4309;SDS011;2168;53.576;9.980;2022-09-09T08:27:40;6.40;;;4.60;;
4309;SDS011;2168;53.576;9.980;2022-09-09T08:30:05;9.47;;;5.57;;
4309;SDS011;2168;53.576;9.980;2022-09-09T08:32:31;8.10;;;4.73;;
4309;SDS011;2168;53.576;9.980;2022-09-09T08:34:56;8.63;;;4.87;;
4309;SDS011;2168;53.576;9.980;2022-09-09T08:37:21;11.53;;;4.90;;
4309;SDS011;2168;53.576;9.980;2022-09-09T08:39:46;7.57;;;4.53;;
4309;SDS011;2168;53.576;9.980;2022-09-09T08:42:17;6.63;;;4.13;;
4309;SDS011;2168;53.576;9.980;2022-09-09T08:47:38;13.80;;;7.30;;
4309;SDS011;2168;53.576;9.980;2022-09-09T08:52:43;7.03;;;3.90;;
4309;SDS011;2168;53.576;9.980;2022-09-09T08:57:38;4.40;;;3.30;;
4309;SDS011;2168;53.576;9.980;2022-09-09T09:00:04;10.13;;;4.23;;
4309;SDS011;2168;53.576;9.980;2022-09-09T09:07:35;9.43;;;4.30;;
4309;SDS011;2168;53.576;9.980;2022-09-09T09:12:33;7.63;;;3.20;;
4309;SDS011;2168;53.576;9.980;2022-09-09T09:15:00;2.93;;;2.37;;
4309;SDS011;2168;53.576;9.980;2022-09-09T09:17:26;4.13;;;2.30;;
4309;SDS011;2168;53.576;9.980;2022-09-09T09:19:52;5.03;;;2.70;;
4309;SDS011;2168;53.576;9.980;2022-09-09T09:22:22;3.13;;;2.30;;
4309;SDS011;2168;53.576;9.980;2022-09-09T09:29:50;7.07;;;4.10;;
4309;SDS011;2168;53.576;9.980;2022-09-09T09:32:17;4.77;;;2.73;;
4309;SDS011;2168;53.576;9.980;2022-09-09T09:34:48;3.93;;;2.20;;
4309;SDS011;2168;53.576;9.980;2022-09-09T09:37:16;4.80;;;3.00;;
4309;SDS011;2168;53.576;9.980;2022-09-09T09:39:45;3.53;;;2.10;;
4309;SDS011;2168;53.576;9.980;2022-09-09T09:42:11;3.70;;;3.40;;
4309;SDS011;2168;53.576;9.980;2022-09-09T09:44:38;6.37;;;2.97;;
4309;SDS011;2168;53.576;9.980;2022-09-09T09:47:08;3.83;;;3.40;;
4309;SDS011;2168;53.576;9.980;2022-09-09T09:49:33;3.37;;;1.97;;
4309;SDS011;2168;53.576;9.980;2022-09-09T09:52:05;4.77;;;1.83;;
4309;SDS011;2168;53.576;9.980;2022-09-09T09:54:37;10.17;;;3.30;;
4309;SDS011;2168;53.576;9.980;2022-09-09T09:57:12;4.87;;;2.10;;
4309;SDS011;2168;53.576;9.980;2022-09-09T09:59:39;4.83;;;2.27;;
4309;SDS011;2168;53.576;9.980;2022-09-09T10:02:21;12.00;;;2.50;;
4309;SDS011;2168;53.576;9.980;2022-09-09T10:05:00;5.37;;;3.13;;
4309;SDS011;2168;53.576;9.980;2022-09-09T10:07:26;4.90;;;2.40;;
4309;SDS011;2168;53.576;9.980;2022-09-09T10:09:53;7.67;;;3.57;;
4309;SDS011;2168;53.576;9.980;2022-09-09T10:17:36;7.10;;;2.80;;
4309;SDS011;2168;53.576;9.980;2022-09-09T10:22:50;6.20;;;1.67;;
4309;SDS011;2168;53.576;9.980;2022-09-09T10:25:21;9.30;;;2.60;;
4309;SDS011;2168;53.576;9.980;2022-09-09T10:28:33;2.83;;;2.40;;
4309;SDS011;2168;53.576;9.980;2022-09-09T10:41:18;6.03;;;2.90;;
4309;SDS011;2168;53.576;9.980;2022-09-09T10:49:32;3.33;;;2.23;;
4309;SDS011;2168;53.576;9.980;2022-09-09T10:54:42;2.20;;;1.60;;
4309;SDS011;2168;53.576;9.980;2022-09-09T10:59:47;2.77;;;1.67;;
4309;SDS011;2168;53.576;9.980;2022-09-09T11:04:41;4.40;;;2.07;;
4309;SDS011;2168;53.576;9.980;2022-09-09T11:07:08;3.30;;;2.40;;
4309;SDS011;2168;53.576;9.980;2022-09-09T11:09:37;6.00;;;2.37;;
4309;SDS011;2168;53.576;9.980;2022-09-09T11:12:03;4.70;;;1.97;;
4309;SDS011;2168;53.576;9.980;2022-09-09T11:14:29;2.10;;;2.00;;
4309;SDS011;2168;53.576;9.980;2022-09-09T11:16:59;3.13;;;2.47;;
4309;SDS011;2168;53.576;9.980;2022-09-09T11:21:59;1.53;;;1.43;;
4309;SDS011;2168;53.576;9.980;2022-09-09T11:24:27;3.50;;;3.20;;
4309;SDS011;2168;53.576;9.980;2022-09-09T11:26:55;3.60;;;2.20;;
4309;SDS011;2168;53.576;9.980;2022-09-09T11:42:05;3.20;;;2.90;;
4309;SDS011;2168;53.576;9.980;2022-09-09T11:44:31;8.87;;;5.47;;
4309;SDS011;2168;53.576;9.980;2022-09-09T11:46:57;6.07;;;5.57;;
4309;SDS011;2168;53.576;9.980;2022-09-09T11:49:43;4.93;;;4.63;;
4309;SDS011;2168;53.576;9.980;2022-09-09T11:52:24;2.80;;;2.53;;
4309;SDS011;2168;53.576;9.980;2022-09-09T11:54:51;5.13;;;2.73;;
4309;SDS011;2168;53.576;9.980;2022-09-09T11:57:22;3.13;;;2.33;;
4309;SDS011;2168;53.576;9.980;2022-09-09T11:59:51;3.97;;;3.67;;
4309;SDS011;2168;53.576;9.980;2022-09-09T12:02:23;5.37;;;3.33;;
4309;SDS011;2168;53.576;9.980;2022-09-09T12:04:54;3.77;;;2.30;;
4309;SDS011;2168;53.576;9.980;2022-09-09T12:07:31;2.77;;;1.77;;
4309;SDS011;2168;53.576;9.980;2022-09-09T12:12:30;7.80;;;2.97;;
4309;SDS011;2168;53.576;9.980;2022-09-09T12:15:15;5.40;;;4.90;;
4309;SDS011;2168;53.576;9.980;2022-09-09T12:17:49;3.60;;;2.23;;
4309;SDS011;2168;53.576;9.980;2022-09-09T12:28:08;5.33;;;3.00;;
4309;SDS011;2168;53.576;9.980;2022-09-09T12:30:41;3.77;;;2.60;;
4309;SDS011;2168;53.576;9.980;2022-09-09T12:33:10;4.83;;;2.57;;
4309;SDS011;2168;53.576;9.980;2022-09-09T12:35:35;5.27;;;3.83;;
4309;SDS011;2168;53.576;9.980;2022-09-09T12:38:03;4.07;;;2.83;;
4309;SDS011;2168;53.576;9.980;2022-09-09T12:40:32;4.57;;;2.50;;
4309;SDS011;2168;53.576;9.980;2022-09-09T12:43:00;13.50;;;8.73;;
4309;SDS011;2168;53.576;9.980;2022-09-09T12:45:27;5.23;;;2.90;;
4309;SDS011;2168;53.576;9.980;2022-09-09T12:50:20;4.20;;;3.03;;
4309;SDS011;2168;53.576;9.980;2022-09-09T12:52:46;6.83;;;5.80;;
4309;SDS011;2168;53.576;9.980;2022-09-09T12:55:15;6.63;;;2.30;;
4309;SDS011;2168;53.576;9.980;2022-09-09T12:57:41;7.93;;;3.80;;
4309;SDS011;2168;53.576;9.980;2022-09-09T13:00:12;4.83;;;2.90;;
4309;SDS011;2168;53.576;9.980;2022-09-09T13:02:45;7.03;;;4.40;;
4309;SDS011;2168;53.576;9.980;2022-09-09T13:05:18;9.27;;;4.80;;
4309;SDS011;2168;53.576;9.980;2022-09-09T13:07:44;8.83;;;5.13;;
4309;SDS011;2168;53.576;9.980;2022-09-09T13:10:19;3.63;;;2.67;;
4309;SDS011;2168;53.576;9.980;2022-09-09T13:12:46;7.87;;;2.73;;
4309;SDS011;2168;53.576;9.980;2022-09-09T13:15:16;4.23;;;3.83;;
4309;SDS011;2168;53.576;9.980;2022-09-09T13:17:48;3.87;;;2.77;;
4309;SDS011;2168;53.576;9.980;2022-09-09T13:20:17;3.57;;;3.27;;
4309;SDS011;2168;53.576;9.980;2022-09-09T13:22:43;10.00;;;3.43;;
4309;SDS011;2168;53.576;9.980;2022-09-09T13:27:35;10.10;;;4.00;;
4309;SDS011;2168;53.576;9.980;2022-09-09T13:32:48;8.70;;;3.40;;
4309;SDS011;2168;53.576;9.980;2022-09-09T13:35:24;6.57;;;4.73;;
4309;SDS011;2168;53.576;9.980;2022-09-09T13:37:50;8.50;;;4.17;;
4309;SDS011;2168;53.576;9.980;2022-09-09T13:40:19;6.60;;;3.40;;
4309;SDS011;2168;53.576;9.980;2022-09-09T13:42:46;7.27;;;3.33;;
4309;SDS011;2168;53.576;9.980;2022-09-09T13:45:15;5.00;;;3.10;;
4309;SDS011;2168;53.576;9.980;2022-09-09T13:47:41;6.27;;;4.63;;
4309;SDS011;2168;53.576;9.980;2022-09-09T13:50:26;7.50;;;4.03;;
4309;SDS011;2168;53.576;9.980;2022-09-09T13:52:52;8.40;;;4.20;;
4309;SDS011;2168;53.576;9.980;2022-09-09T13:55:18;8.93;;;4.77;;
4309;SDS011;2168;53.576;9.980;2022-09-09T13:57:54;7.03;;;4.20;;
4309;SDS011;2168;53.576;9.980;2022-09-09T14:00:20;7.37;;;4.77;;
4309;SDS011;2168;53.576;9.980;2022-09-09T14:02:45;7.67;;;4.23;;
4309;SDS011;2168;53.576;9.980;2022-09-09T14:05:11;8.53;;;4.50;;
4309;SDS011;2168;53.576;9.980;2022-09-09T14:07:36;8.27;;;4.20;;
4309;SDS011;2168;53.576;9.980;2022-09-09T14:10:03;8.53;;;4.83;;
4309;SDS011;2168;53.576;9.980;2022-09-09T14:12:28;12.03;;;5.30;;
4309;SDS011;2168;53.576;9.980;2022-09-09T14:14:53;15.77;;;5.00;;
4309;SDS011;2168;53.576;9.980;2022-09-09T14:17:19;15.23;;;5.67;;
4309;SDS011;2168;53.576;9.980;2022-09-09T14:19:44;13.47;;;5.30;;
4309;SDS011;2168;53.576;9.980;2022-09-09T14:22:11;13.30;;;5.37;;
4309;SDS011;2168;53.576;9.980;2022-09-09T14:24:36;10.07;;;4.57;;
4309;SDS011;2168;53.576;9.980;2022-09-09T14:27:01;17.80;;;5.97;;
4309;SDS011;2168;53.576;9.980;2022-09-09T14:29:27;14.10;;;4.80;;
4309;SDS011;2168;53.576;9.980;2022-09-09T14:31:52;9.20;;;5.03;;
4309;SDS011;2168;53.576;9.980;2022-09-09T14:34:17;7.13;;;4.50;;
4309;SDS011;2168;53.576;9.980;2022-09-09T14:36:43;13.83;;;5.00;;
4309;SDS011;2168;53.576;9.980;2022-09-09T14:39:12;16.30;;;5.80;;
4309;SDS011;2168;53.576;9.980;2022-09-09T14:41:37;8.27;;;3.80;;
4309;SDS011;2168;53.576;9.980;2022-09-09T14:44:02;9.10;;;4.60;;
4309;SDS011;2168;53.576;9.980;2022-09-09T14:46:28;10.83;;;4.90;;
4309;SDS011;2168;53.576;9.980;2022-09-09T14:48:53;6.70;;;3.70;;
4309;SDS011;2168;53.576;9.980;2022-09-09T14:51:19;6.43;;;4.10;;
4309;SDS011;2168;53.576;9.980;2022-09-09T14:53:45;7.37;;;3.77;;
4309;SDS011;2168;53.576;9.980;2022-09-09T14:56:11;7.03;;;4.73;;
4309;SDS011;2168;53.576;9.980;2022-09-09T14:58:37;4.03;;;3.57;;
4309;SDS011;2168;53.576;9.980;2022-09-09T15:01:06;5.03;;;3.20;;
4309;SDS011;2168;53.576;9.980;2022-09-09T15:03:32;5.23;;;2.90;;
4309;SDS011;2168;53.576;9.980;2022-09-09T15:05:58;3.40;;;2.80;;
4309;SDS011;2168;53.576;9.980;2022-09-09T15:08:23;4.30;;;2.87;;
4309;SDS011;2168;53.576;9.980;2022-09-09T15:10:49;2.77;;;2.57;;
4309;SDS011;2168;53.576;9.980;2022-09-09T15:13:15;6.40;;;2.63;;
4309;SDS011;2168;53.576;9.980;2022-09-09T15:15:42;10.63;;;4.73;;
4309;SDS011;2168;53.576;9.980;2022-09-09T15:18:07;4.60;;;3.57;;
4309;SDS011;2168;53.576;9.980;2022-09-09T15:20:32;9.17;;;5.20;;
4309;SDS011;2168;53.576;9.980;2022-09-09T15:22:57;5.67;;;3.53;;
4309;SDS011;2168;53.576;9.980;2022-09-09T15:25:22;4.73;;;4.00;;
4309;SDS011;2168;53.576;9.980;2022-09-09T15:27:48;7.50;;;4.80;;
4309;SDS011;2168;53.576;9.980;2022-09-09T15:30:13;2.77;;;2.53;;
4309;SDS011;2168;53.576;9.980;2022-09-09T15:32:38;5.50;;;3.33;;
4309;SDS011;2168;53.576;9.980;2022-09-09T15:35:05;10.50;;;3.30;;
4309;SDS011;2168;53.576;9.980;2022-09-09T15:37:31;4.10;;;3.00;;
4309;SDS011;2168;53.576;9.980;2022-09-09T15:39:57;5.80;;;3.37;;
4309;SDS011;2168;53.576;9.980;2022-09-09T15:42:23;6.43;;;3.70;;
4309;SDS011;2168;53.576;9.980;2022-09-09T15:44:50;4.80;;;3.33;;
4309;SDS011;2168;53.576;9.980;2022-09-09T15:47:15;4.40;;;3.40;;
4309;SDS011;2168;53.576;9.980;2022-09-09T15:49:41;4.87;;;3.03;;
4309;SDS011;2168;53.576;9.980;2022-09-09T15:52:06;5.57;;;4.10;;
4309;SDS011;2168;53.576;9.980;2022-09-09T15:54:34;6.23;;;4.03;;
4309;SDS011;2168;53.576;9.980;2022-09-09T15:57:01;6.90;;;2.90;;
4309;SDS011;2168;53.576;9.980;2022-09-09T15:59:27;7.57;;;3.23;;
4309;SDS011;2168;53.576;9.980;2022-09-09T16:01:53;5.10;;;2.87;;
4309;SDS011;2168;53.576;9.980;2022-09-09T16:04:19;6.40;;;2.40;;
4309;SDS011;2168;53.576;9.980;2022-09-09T16:06:51;2.33;;;2.13;;
4309;SDS011;2168;53.576;9.980;2022-09-09T16:09:16;4.40;;;2.10;;
4309;SDS011;2168;53.576;9.980;2022-09-09T16:11:41;5.50;;;3.20;;
4309;SDS011;2168;53.576;9.980;2022-09-09T16:14:07;4.10;;;3.80;;
4309;SDS011;2168;53.576;9.980;2022-09-09T16:16:32;3.50;;;2.43;;
4309;SDS011;2168;53.576;9.980;2022-09-09T16:18:58;2.40;;;2.20;;
4309;SDS011;2168;53.576;9.980;2022-09-09T16:21:26;21.10;;;11.97;;
4309;SDS011;2168;53.576;9.980;2022-09-09T16:23:54;4.83;;;3.00;;
4309;SDS011;2168;53.576;9.980;2022-09-09T16:26:19;3.47;;;2.50;;
4309;SDS011;2168;53.576;9.980;2022-09-09T16:28:45;5.60;;;3.67;;
4309;SDS011;2168;53.576;9.980;2022-09-09T16:31:13;2.90;;;2.57;;
4309;SDS011;2168;53.576;9.980;2022-09-09T16:33:39;5.80;;;5.20;;
4309;SDS011;2168;53.576;9.980;2022-09-09T16:36:08;4.10;;;3.50;;
4309;SDS011;2168;53.576;9.980;2022-09-09T16:38:33;5.50;;;2.60;;
4309;SDS011;2168;53.576;9.980;2022-09-09T16:41:00;14.70;;;4.10;;
4309;SDS011;2168;53.576;9.980;2022-09-09T16:43:26;5.60;;;3.10;;
4309;SDS011;2168;53.576;9.980;2022-09-09T16:45:51;5.60;;;3.00;;
4309;SDS011;2168;53.576;9.980;2022-09-09T16:48:16;5.73;;;4.47;;
4309;SDS011;2168;53.576;9.980;2022-09-09T16:50:41;13.80;;;7.20;;
4309;SDS011;2168;53.576;9.980;2022-09-09T16:53:06;4.27;;;3.00;;
4309;SDS011;2168;53.576;9.980;2022-09-09T16:55:37;7.93;;;4.83;;
4309;SDS011;2168;53.576;9.980;2022-09-09T16:58:02;3.07;;;2.60;;